Time;durP1;ratioP1;P1;durP2;ratioP2;P2;SDS_P1;SDS_P2;PMS_P1;PMS_P2;Temp;Humidity;BMP_temperature;BMP_pressure;BME280_temperature;BME280_humidity;BME280_pressure;Samples;Min_cycle;Max_cycle;Signal;HPM_P1;HPM_P2
2023/12/03 00:02:19;;;;;;;11.50;8.70;;;;;;;;;;85417;210;3027992;-40
2023/12/03 00:04:58;;;;;;;11.50;8.80;;;;;;;;;;85412;210;3027867;-40
2023/12/03 00:07:39;;;;;;;11.40;8.80;;;;;;;;;;85460;210;3030997;-40
2023/12/03 00:10:21;;;;;;;11.70;8.70;;;;;;;;;;85428;210;3031982;-39
2023/12/03 00:12:58;;;;;;;11.70;8.80;;;;;;;;;;85396;210;3028309;-39
2023/12/03 00:15:41;;;;;;;12.00;8.30;;;;;;;;;;85496;211;3027281;-39
2023/12/03 00:18:19;;;;;;;11.30;8.60;;;;;;;;;;85389;211;3030446;-40
2023/12/03 00:21:01;;;;;;;11.00;8.60;;;;;;;;;;85452;211;3031981;-40
2023/12/03 00:23:43;;;;;;;10.80;8.40;;;;;;;;;;85450;211;3028856;-39
2023/12/03 00:26:22;;;;;;;10.90;8.30;;;;;;;;;;85444;211;3027272;-39
2023/12/03 00:29:00;;;;;;;11.40;8.20;;;;;;;;;;85426;211;3030677;-39
2023/12/03 00:31:40;;;;;;;11.60;8.30;;;;;;;;;;85437;211;3031522;-39
2023/12/03 00:34:19;;;;;;;11.30;8.30;;;;;;;;;;85428;211;3028408;-39
2023/12/03 00:36:56;;;;;;;11.50;8.50;;;;;;;;;;85434;211;3028265;-40
2023/12/03 00:39:32;;;;;;;10.30;8.10;;;;;;;;;;85458;210;3031103;-39
2023/12/03 00:42:10;;;;;;;11.00;8.10;;;;;;;;;;85428;210;3031988;-39
2023/12/03 00:44:49;;;;;;;10.90;8.30;;;;;;;;;;85439;210;3027961;-39
2023/12/03 00:47:30;;;;;;;11.10;7.90;;;;;;;;;;85424;210;3027111;-39
2023/12/03 00:50:09;;;;;;;10.50;8.10;;;;;;;;;;85434;210;3030392;-39
2023/12/03 00:52:46;;;;;;;10.50;7.90;;;;;;;;;;85556;210;3038478;-39
2023/12/03 00:55:23;;;;;;;10.10;7.60;;;;;;;;;;85469;210;3028791;-40
2023/12/03 00:58:00;;;;;;;10.20;7.90;;;;;;;;;;85376;210;3027869;-41
2023/12/03 01:00:41;;;;;;;10.30;8.00;;;;;;;;;;85466;210;3030838;-39
2023/12/03 01:03:23;;;;;;;10.80;7.80;;;;;;;;;;85437;210;3037110;-39
2023/12/03 01:06:01;;;;;;;9.90;7.60;;;;;;;;;;85488;210;3028659;-39
2023/12/03 01:08:39;;;;;;;10.10;7.10;;;;;;;;;;85484;210;3027991;-39
2023/12/03 01:11:16;;;;;;;9.90;7.40;;;;;;;;;;85442;211;3030704;-40
2023/12/03 01:14:14;;;;;;;10.10;7.70;;;;;;;;;;85400;211;3031667;-39
2023/12/03 01:16:51;;;;;;;9.50;7.40;;;;;;;;;;85403;211;3027913;-39
2023/12/03 01:19:28;;;;;;;9.60;7.20;;;;;;;;;;85430;211;3027091;-40
2023/12/03 01:22:07;;;;;;;9.10;6.90;;;;;;;;;;85429;211;3031175;-40
2023/12/03 01:24:51;;;;;;;10.10;7.30;;;;;;;;;;85457;211;3031346;-40
2023/12/03 01:27:29;;;;;;;9.20;6.90;;;;;;;;;;85443;211;3027999;-39
2023/12/03 01:30:12;;;;;;;9.60;7.10;;;;;;;;;;85462;211;3028705;-39
2023/12/03 01:32:51;;;;;;;10.40;7.30;;;;;;;;;;85384;211;3031218;-39
2023/12/03 01:35:31;;;;;;;8.90;6.80;;;;;;;;;;85394;211;3031044;-39
2023/12/03 01:38:18;;;;;;;9.10;6.70;;;;;;;;;;85413;211;3028391;-39
2023/12/03 01:40:58;;;;;;;9.30;6.60;;;;;;;;;;84354;211;3027627;-39
2023/12/03 01:43:50;;;;;;;10.10;7.10;;;;;;;;;;85318;211;3030993;-39
2023/12/03 01:46:31;;;;;;;9.20;6.50;;;;;;;;;;85402;211;3031880;-39
2023/12/03 01:49:12;;;;;;;9.40;6.50;;;;;;;;;;85421;211;3028701;-39
2023/12/03 01:51:51;;;;;;;9.20;6.50;;;;;;;;;;85471;211;3027462;-39
2023/12/03 01:54:35;;;;;;;8.90;6.70;;;;;;;;;;85443;211;3036619;-39
2023/12/03 01:57:14;;;;;;;8.80;6.00;;;;;;;;;;85457;211;3031913;-39
2023/12/03 01:59:53;;;;;;;8.30;6.00;;;;;;;;;;85473;211;3028781;-39
2023/12/03 02:02:31;;;;;;;8.60;5.90;;;;;;;;;;85470;210;3027199;-39
2023/12/03 02:05:10;;;;;;;8.70;6.30;;;;;;;;;;85460;210;3031905;-40
2023/12/03 02:07:46;;;;;;;8.20;5.90;;;;;;;;;;85487;210;3031316;-39
2023/12/03 02:10:23;;;;;;;8.40;6.20;;;;;;;;;;85442;210;3027976;-39
2023/12/03 02:13:06;;;;;;;8.80;6.00;;;;;;;;;;85426;210;3027653;-39
2023/12/03 02:15:43;;;;;;;8.30;6.30;;;;;;;;;;85416;210;3032078;-40
2023/12/03 02:18:22;;;;;;;8.80;6.00;;;;;;;;;;85397;210;3031331;-37
2023/12/03 02:21:00;;;;;;;8.70;6.30;;;;;;;;;;85416;210;3030714;-37
2023/12/03 02:23:47;;;;;;;8.70;6.20;;;;;;;;;;85416;210;3027854;-37
2023/12/03 02:26:26;;;;;;;8.20;5.80;;;;;;;;;;85461;210;3030962;-37
2023/12/03 02:29:12;;;;;;;8.60;6.00;;;;;;;;;;85367;210;3031658;-37
2023/12/03 02:31:58;;;;;;;8.00;5.70;;;;;;;;;;85499;210;3028128;-37
2023/12/03 02:34:42;;;;;;;8.40;5.90;;;;;;;;;;85424;211;3027590;-36
2023/12/03 02:37:23;;;;;;;8.40;6.00;;;;;;;;;;85442;211;3030944;-37
2023/12/03 02:40:04;;;;;;;8.00;5.60;;;;;;;;;;85434;211;3032033;-37
2023/12/03 02:42:45;;;;;;;8.70;6.20;;;;;;;;;;85402;211;3028263;-37
2023/12/03 02:45:23;;;;;;;8.70;6.10;;;;;;;;;;85424;211;3032739;-37
2023/12/03 02:48:00;;;;;;;8.30;6.00;;;;;;;;;;85432;211;3031156;-37
2023/12/03 02:50:37;;;;;;;8.00;5.50;;;;;;;;;;85484;211;3031254;-37
2023/12/03 02:53:14;;;;;;;8.00;5.50;;;;;;;;;;85439;211;3028412;-37
2023/12/03 02:55:54;;;;;;;8.00;5.80;;;;;;;;;;85467;211;3034274;-38
2023/12/03 02:58:39;;;;;;;8.00;5.60;;;;;;;;;;85406;211;3032069;-37
2023/12/03 03:01:20;;;;;;;7.90;5.70;;;;;;;;;;85473;210;3031690;-37
2023/12/03 03:04:00;;;;;;;8.30;5.70;;;;;;;;;;85418;211;3028242;-37
2023/12/03 03:06:41;;;;;;;8.50;6.20;;;;;;;;;;85392;210;3027225;-37
2023/12/03 03:09:19;;;;;;;7.90;5.50;;;;;;;;;;85441;210;3030587;-37
2023/12/03 03:11:58;;;;;;;8.20;5.40;;;;;;;;;;85453;210;3031538;-37
2023/12/03 03:14:37;;;;;;;7.60;5.80;;;;;;;;;;85390;210;3028303;-37
2023/12/03 03:17:20;;;;;;;8.80;5.90;;;;;;;;;;85430;210;3027518;-37
2023/12/03 03:20:00;;;;;;;8.40;5.90;;;;;;;;;;85427;210;3030270;-37
2023/12/03 03:22:36;;;;;;;8.20;5.90;;;;;;;;;;85474;210;3031871;-37
2023/12/03 03:25:15;;;;;;;8.40;6.00;;;;;;;;;;85409;210;3027990;-37
2023/12/03 03:27:56;;;;;;;7.90;5.60;;;;;;;;;;85438;210;3027135;-37
2023/12/03 03:30:36;;;;;;;8.20;5.90;;;;;;;;;;85449;210;3031193;-37
2023/12/03 03:33:19;;;;;;;8.40;6.30;;;;;;;;;;85491;210;3032229;-37
2023/12/03 03:36:02;;;;;;;7.90;5.60;;;;;;;;;;85445;210;3028706;-37
2023/12/03 03:38:40;;;;;;;7.90;5.90;;;;;;;;;;85474;210;3027514;-37
2023/12/03 03:41:21;;;;;;;8.10;6.00;;;;;;;;;;85436;210;3033704;-36
2023/12/03 03:44:01;;;;;;;7.90;5.60;;;;;;;;;;85456;210;3031656;-37
2023/12/03 03:46:41;;;;;;;8.10;5.80;;;;;;;;;;85429;210;3028276;-37
2023/12/03 03:49:17;;;;;;;7.70;5.50;;;;;;;;;;85447;210;3026923;-37
2023/12/03 03:51:56;;;;;;;8.50;6.20;;;;;;;;;;85467;210;3030640;-36
2023/12/03 03:54:33;;;;;;;8.20;6.00;;;;;;;;;;85480;210;3034158;-36
2023/12/03 03:57:13;;;;;;;7.90;5.70;;;;;;;;;;85504;210;3034038;-36
2023/12/03 03:59:51;;;;;;;7.40;5.90;;;;;;;;;;85459;210;3027980;-37
2023/12/03 04:02:28;;;;;;;8.40;5.90;;;;;;;;;;85456;210;3031113;-37
2023/12/03 04:05:10;;;;;;;8.10;5.70;;;;;;;;;;85428;210;3031481;-37
2023/12/03 04:07:48;;;;;;;8.20;5.50;;;;;;;;;;85407;210;3027941;-37
2023/12/03 04:10:28;;;;;;;7.70;5.70;;;;;;;;;;85412;210;3027834;-37
2023/12/03 04:13:13;;;;;;;8.30;5.60;;;;;;;;;;85428;210;3030375;-37
2023/12/03 04:15:53;;;;;;;8.00;5.70;;;;;;;;;;85366;210;3031221;-37
2023/12/03 04:18:33;;;;;;;7.70;5.50;;;;;;;;;;85496;210;3029004;-37
2023/12/03 04:21:20;;;;;;;8.00;5.50;;;;;;;;;;85447;210;3027870;-37
2023/12/03 04:23:58;;;;;;;7.60;5.40;;;;;;;;;;85398;210;3030501;-37
2023/12/03 04:26:36;;;;;;;8.30;5.80;;;;;;;;;;85403;211;3032042;-37
2023/12/03 04:29:18;;;;;;;7.60;5.50;;;;;;;;;;85441;211;3027732;-36
2023/12/03 04:31:55;;;;;;;7.50;5.70;;;;;;;;;;85454;211;3027168;-36
2023/12/03 04:34:35;;;;;;;7.90;5.60;;;;;;;;;;85410;211;3030869;-36
2023/12/03 04:37:18;;;;;;;8.50;5.80;;;;;;;;;;85442;211;3031558;-37
2023/12/03 04:40:01;;;;;;;8.00;5.80;;;;;;;;;;85367;211;3028550;-37
2023/12/03 04:42:38;;;;;;;7.60;5.70;;;;;;;;;;85472;211;3027093;-36
2023/12/03 04:45:18;;;;;;;8.10;5.40;;;;;;;;;;85472;211;3030634;-37
2023/12/03 04:47:56;;;;;;;8.30;6.10;;;;;;;;;;85405;211;3031936;-37
2023/12/03 04:50:38;;;;;;;8.10;5.60;;;;;;;;;;85452;211;3028757;-37
2023/12/03 04:53:16;;;;;;;8.10;5.70;;;;;;;;;;85460;210;3027748;-36
2023/12/03 04:55:54;;;;;;;7.60;5.50;;;;;;;;;;85427;210;3030541;-36
2023/12/03 04:58:33;;;;;;;8.50;5.70;;;;;;;;;;85435;210;3037544;-37
2023/12/03 05:01:13;;;;;;;8.30;5.70;;;;;;;;;;85430;210;3028316;-37
2023/12/03 05:03:56;;;;;;;7.80;5.90;;;;;;;;;;85482;210;3027417;-37
2023/12/03 05:06:37;;;;;;;8.40;5.70;;;;;;;;;;85445;210;3030341;-38
2023/12/03 05:09:17;;;;;;;8.30;5.80;;;;;;;;;;85421;210;3031886;-37
2023/12/03 05:11:57;;;;;;;8.80;6.00;;;;;;;;;;85441;210;3028353;-38
2023/12/03 05:14:42;;;;;;;8.80;6.40;;;;;;;;;;85465;210;3027312;-37
2023/12/03 05:17:20;;;;;;;8.40;5.60;;;;;;;;;;85407;210;3030490;-37
2023/12/03 05:19:58;;;;;;;8.30;6.20;;;;;;;;;;85434;210;3031371;-37
2023/12/03 05:22:42;;;;;;;8.60;5.80;;;;;;;;;;85424;211;3028758;-37
2023/12/03 05:25:22;;;;;;;8.80;6.20;;;;;;;;;;85411;211;3027292;-37
2023/12/03 05:27:59;;;;;;;8.90;6.00;;;;;;;;;;85399;211;3030865;-37
2023/12/03 05:30:38;;;;;;;8.70;6.50;;;;;;;;;;85389;211;3031723;-37
2023/12/03 05:33:16;;;;;;;8.70;5.90;;;;;;;;;;85430;211;3028205;-38
2023/12/03 05:35:55;;;;;;;8.30;5.60;;;;;;;;;;85445;211;3027227;-37
2023/12/03 05:38:33;;;;;;;8.90;6.20;;;;;;;;;;85381;211;3030532;-37
2023/12/03 05:41:12;;;;;;;7.90;5.70;;;;;;;;;;85464;210;3032008;-37
2023/12/03 05:43:53;;;;;;;8.70;6.20;;;;;;;;;;85413;210;3028559;-37
2023/12/03 05:46:31;;;;;;;8.90;6.20;;;;;;;;;;85432;210;3027181;-37
2023/12/03 05:49:08;;;;;;;8.40;6.00;;;;;;;;;;85385;210;3031580;-37
2023/12/03 05:51:48;;;;;;;8.60;6.30;;;;;;;;;;85480;210;3031629;-37
2023/12/03 05:54:28;;;;;;;8.00;5.90;;;;;;;;;;85429;210;3028471;-37
2023/12/03 05:57:08;;;;;;;8.90;6.10;;;;;;;;;;85461;210;3027345;-37
2023/12/03 05:59:46;;;;;;;8.80;6.20;;;;;;;;;;85595;210;3038241;-37
2023/12/03 06:02:26;;;;;;;9.10;6.40;;;;;;;;;;85459;211;3031939;-37
2023/12/03 06:05:04;;;;;;;8.90;6.50;;;;;;;;;;85479;210;3028411;-38
2023/12/03 06:07:43;;;;;;;8.50;6.20;;;;;;;;;;85454;210;3027508;-37
2023/12/03 06:10:20;;;;;;;8.40;6.10;;;;;;;;;;85497;210;3036653;-37
2023/12/03 06:12:59;;;;;;;8.90;6.10;;;;;;;;;;85432;210;3031885;-37
2023/12/03 06:15:36;;;;;;;9.00;6.50;;;;;;;;;;85383;210;3027847;-37
2023/12/03 06:18:21;;;;;;;9.30;6.30;;;;;;;;;;85414;211;3027676;-37
2023/12/03 06:20:59;;;;;;;8.60;6.50;;;;;;;;;;85476;211;3030635;-37
2023/12/03 06:23:40;;;;;;;8.90;6.50;;;;;;;;;;85379;211;3031998;-37
2023/12/03 06:26:19;;;;;;;8.40;5.80;;;;;;;;;;85409;211;3028122;-37
2023/12/03 06:29:00;;;;;;;8.60;6.10;;;;;;;;;;85412;211;3027744;-37
2023/12/03 06:31:40;;;;;;;8.50;6.30;;;;;;;;;;85447;211;3030719;-37
2023/12/03 06:34:17;;;;;;;8.80;6.20;;;;;;;;;;85444;211;3031886;-38
2023/12/03 06:36:54;;;;;;;9.30;6.20;;;;;;;;;;85422;211;3029372;-37
2023/12/03 06:39:32;;;;;;;8.90;6.60;;;;;;;;;;85371;211;3027241;-37
2023/12/03 06:42:12;;;;;;;9.50;6.80;;;;;;;;;;85441;210;3030950;-37
2023/12/03 06:44:52;;;;;;;8.60;6.00;;;;;;;;;;85402;210;3032735;-38
2023/12/03 06:47:29;;;;;;;8.70;6.00;;;;;;;;;;85430;211;3028095;-38
2023/12/03 06:50:06;;;;;;;9.50;6.70;;;;;;;;;;85388;211;3027895;-38
2023/12/03 06:52:51;;;;;;;9.10;6.50;;;;;;;;;;85460;211;3031442;-38
2023/12/03 06:55:26;;;;;;;;;;;;;;;;;;85413;211;3032817;-38
2023/12/03 06:58:04;;;;;;;9.40;6.70;;;;;;;;;;86293;211;3011677;-38
2023/12/03 07:00:44;;;;;;;8.90;6.10;;;;;;;;;;85429;211;3028643;-38
2023/12/03 07:03:21;;;;;;;10.40;6.90;;;;;;;;;;85440;210;3027510;-38
2023/12/03 07:06:04;;;;;;;9.40;7.10;;;;;;;;;;85476;210;3030606;-37
2023/12/03 07:08:44;;;;;;;9.40;6.40;;;;;;;;;;85467;210;3031475;-41
2023/12/03 07:11:22;;;;;;;9.30;6.60;;;;;;;;;;85415;210;3033905;-43
2023/12/03 07:13:58;;;;;;;9.40;6.60;;;;;;;;;;85470;211;3027496;-39
2023/12/03 07:16:38;;;;;;;9.20;6.90;;;;;;;;;;85457;211;3030421;-38
2023/12/03 07:19:15;;;;;;;10.00;7.00;;;;;;;;;;85426;211;3031094;-38
2023/12/03 07:21:52;;;;;;;9.60;6.80;;;;;;;;;;85450;211;3034357;-38
2023/12/03 07:24:30;;;;;;;9.60;6.70;;;;;;;;;;85401;211;3027597;-39
2023/12/03 07:27:07;;;;;;;9.30;6.80;;;;;;;;;;85466;211;3030457;-39
2023/12/03 07:29:45;;;;;;;9.00;6.80;;;;;;;;;;85426;211;3031134;-39
2023/12/03 07:32:23;;;;;;;8.80;6.60;;;;;;;;;;85466;211;3028478;-39
2023/12/03 07:35:03;;;;;;;9.50;6.90;;;;;;;;;;85460;211;3027580;-37
2023/12/03 07:37:42;;;;;;;10.50;7.00;;;;;;;;;;85397;210;3031005;-37
2023/12/03 07:40:19;;;;;;;9.80;7.10;;;;;;;;;;85414;210;3031581;-37
2023/12/03 07:42:59;;;;;;;9.70;6.80;;;;;;;;;;85485;210;3028057;-37
2023/12/03 07:45:37;;;;;;;9.00;6.70;;;;;;;;;;85457;210;3027100;-37
2023/12/03 07:48:15;;;;;;;9.50;7.00;;;;;;;;;;85396;210;3030911;-39
2023/12/03 07:50:59;;;;;;;10.00;7.30;;;;;;;;;;85436;210;3031306;-40
2023/12/03 07:53:36;;;;;;;8.80;6.90;;;;;;;;;;85487;210;3028766;-38
2023/12/03 07:56:14;;;;;;;9.60;6.80;;;;;;;;;;85436;210;3027735;-39
2023/12/03 07:58:53;;;;;;;10.40;7.50;;;;;;;;;;85447;210;3031135;-39
2023/12/03 08:01:32;;;;;;;9.50;7.00;;;;;;;;;;85403;210;3031083;-39
2023/12/03 08:04:08;;;;;;;9.30;6.80;;;;;;;;;;85436;210;3028081;-39
2023/12/03 08:06:47;;;;;;;9.80;7.00;;;;;;;;;;85420;210;3027702;-40
2023/12/03 08:09:24;;;;;;;9.50;7.10;;;;;;;;;;85427;210;3030495;-39
2023/12/03 08:12:04;;;;;;;8.90;6.80;;;;;;;;;;85355;211;3031163;-38
2023/12/03 08:14:45;;;;;;;9.90;7.10;;;;;;;;;;85413;211;3028186;-38
2023/12/03 08:17:23;;;;;;;10.20;7.20;;;;;;;;;;85447;211;3027863;-38
2023/12/03 08:20:05;;;;;;;9.40;6.70;;;;;;;;;;85474;211;3031411;-38
2023/12/03 08:22:44;;;;;;;9.80;7.10;;;;;;;;;;85326;211;3031218;-38
2023/12/03 08:25:20;;;;;;;9.80;7.10;;;;;;;;;;85426;211;3028212;-38
2023/12/03 08:28:00;;;;;;;9.70;7.40;;;;;;;;;;85384;211;3027988;-38
2023/12/03 08:30:40;;;;;;;9.00;6.80;;;;;;;;;;85485;211;3030873;-38
2023/12/03 08:33:24;;;;;;;9.20;7.00;;;;;;;;;;85466;211;3040209;-38
2023/12/03 08:36:04;;;;;;;9.80;7.20;;;;;;;;;;85422;211;3028793;-38
2023/12/03 08:38:41;;;;;;;10.10;7.50;;;;;;;;;;85460;210;3027774;-38
2023/12/03 08:41:20;;;;;;;9.80;7.20;;;;;;;;;;85464;210;3030126;-38
2023/12/03 08:43:58;;;;;;;9.30;7.50;;;;;;;;;;85427;210;3031524;-38
2023/12/03 08:46:42;;;;;;;10.20;7.10;;;;;;;;;;85460;210;3028079;-38
2023/12/03 08:49:20;;;;;;;9.20;7.00;;;;;;;;;;85468;210;3027529;-38
2023/12/03 08:51:57;;;;;;;9.30;7.20;;;;;;;;;;85393;210;3031253;-38
2023/12/03 08:54:36;;;;;;;9.50;7.40;;;;;;;;;;85463;210;3031333;-38
2023/12/03 08:57:15;;;;;;;9.90;7.30;;;;;;;;;;85475;210;3028521;-38
2023/12/03 08:59:54;;;;;;;9.20;7.30;;;;;;;;;;85425;210;3027807;-38
2023/12/03 09:02:31;;;;;;;9.70;7.10;;;;;;;;;;85462;210;3030367;-38
2023/12/03 09:05:10;;;;;;;8.90;6.60;;;;;;;;;;85447;210;3031826;-38
2023/12/03 09:07:47;;;;;;;9.70;7.30;;;;;;;;;;85490;210;3028651;-38
2023/12/03 09:10:24;;;;;;;8.70;6.90;;;;;;;;;;85491;210;3027669;-38
2023/12/03 09:13:04;;;;;;;9.90;7.10;;;;;;;;;;85409;210;3031011;-38
2023/12/03 09:15:43;;;;;;;9.20;6.90;;;;;;;;;;85433;210;3031615;-38
2023/12/03 09:18:21;;;;;;;9.50;6.90;;;;;;;;;;85427;210;3028050;-38
2023/12/03 09:21:00;;;;;;;9.30;7.00;;;;;;;;;;85474;210;3026817;-38
2023/12/03 09:23:42;;;;;;;9.50;7.10;;;;;;;;;;85483;210;3030306;-38
2023/12/03 09:26:20;;;;;;;8.90;7.00;;;;;;;;;;85381;210;3031252;-38
2023/12/03 09:29:01;;;;;;;9.10;7.20;;;;;;;;;;85444;210;3027934;-38
2023/12/03 09:31:50;;;;;;;9.20;7.10;;;;;;;;;;85481;210;3027118;-38
2023/12/03 09:34:32;;;;;;;9.40;7.00;;;;;;;;;;85395;210;3030851;-39
2023/12/03 09:37:18;;;;;;;9.50;7.30;;;;;;;;;;85435;210;3031574;-38
2023/12/03 09:39:58;;;;;;;9.90;7.60;;;;;;;;;;85434;211;3028136;-38
2023/12/03 09:42:39;;;;;;;10.00;7.30;;;;;;;;;;84471;211;3027890;-38
2023/12/03 09:45:19;;;;;;;9.70;7.70;;;;;;;;;;85434;211;3031289;-38
2023/12/03 09:48:03;;;;;;;9.90;7.50;;;;;;;;;;85454;211;3031383;-39
2023/12/03 09:50:44;;;;;;;10.60;7.80;;;;;;;;;;85409;211;3028283;-37
2023/12/03 09:53:30;;;;;;;9.40;7.60;;;;;;;;;;85420;211;3027922;-38
2023/12/03 09:56:09;;;;;;;9.80;7.10;;;;;;;;;;85414;211;3030678;-38
2023/12/03 09:58:48;;;;;;;9.20;7.30;;;;;;;;;;85432;211;3031103;-38
2023/12/03 10:01:28;;;;;;;9.70;7.60;;;;;;;;;;85447;210;3028514;-39
2023/12/03 10:04:08;;;;;;;9.80;7.70;;;;;;;;;;85368;210;3027190;-38
2023/12/03 10:06:49;;;;;;;10.30;7.80;;;;;;;;;;85485;210;3030120;-38
2023/12/03 10:09:33;;;;;;;9.80;7.80;;;;;;;;;;85505;210;3031985;-38
2023/12/03 10:12:24;;;;;;;10.20;7.50;;;;;;;;;;85409;210;3028968;-38
2023/12/03 10:15:03;;;;;;;9.60;7.70;;;;;;;;;;85363;210;3028734;-37
2023/12/03 10:17:42;;;;;;;10.80;8.00;;;;;;;;;;85441;210;3030470;-38
2023/12/03 10:20:36;;;;;;;10.30;8.00;;;;;;;;;;85456;210;3031243;-37
2023/12/03 10:23:19;;;;;;;9.60;7.50;;;;;;;;;;85431;210;3028903;-37
2023/12/03 10:25:56;;;;;;;10.40;7.90;;;;;;;;;;85477;210;3034600;-37
2023/12/03 10:28:40;;;;;;;11.00;8.30;;;;;;;;;;85422;210;3030517;-38
2023/12/03 10:31:19;;;;;;;10.90;8.20;;;;;;;;;;85440;210;3032023;-38
2023/12/03 10:34:04;;;;;;;10.20;7.90;;;;;;;;;;85350;211;3028242;-38
2023/12/03 10:36:47;;;;;;;10.10;8.10;;;;;;;;;;85440;210;3026998;-38
2023/12/03 10:39:28;;;;;;;9.80;7.80;;;;;;;;;;85345;211;3031294;-38
2023/12/03 10:42:06;;;;;;;10.80;8.20;;;;;;;;;;85410;211;3031002;-37
2023/12/03 10:44:46;;;;;;;10.00;8.00;;;;;;;;;;85434;211;3028410;-38
2023/12/03 10:47:28;;;;;;;11.20;8.60;;;;;;;;;;85453;211;3027468;-39
2023/12/03 10:50:09;;;;;;;9.80;7.60;;;;;;;;;;85412;211;3030499;-38
2023/12/03 10:52:51;;;;;;;10.60;8.20;;;;;;;;;;85378;211;3032803;-39
2023/12/03 10:55:38;;;;;;;10.00;7.60;;;;;;;;;;85472;211;3029269;-40
2023/12/03 10:58:28;;;;;;;11.00;7.90;;;;;;;;;;85440;210;3027760;-41
2023/12/03 11:01:13;;;;;;;10.30;8.00;;;;;;;;;;85443;210;3030866;-41
2023/12/03 11:04:15;;;;;;;10.70;8.10;;;;;;;;;;85438;210;3031603;-41
2023/12/03 11:06:56;;;;;;;10.20;7.90;;;;;;;;;;85425;211;3035354;-40
2023/12/03 11:09:35;;;;;;;10.90;8.50;;;;;;;;;;85452;210;3027202;-41
2023/12/03 11:12:13;;;;;;;10.00;8.30;;;;;;;;;;85451;211;3030604;-41
2023/12/03 11:14:55;;;;;;;10.80;8.30;;;;;;;;;;85366;211;3031022;-42
2023/12/03 11:17:40;;;;;;;10.90;8.10;;;;;;;;;;85473;211;3034471;-43
2023/12/03 11:20:24;;;;;;;10.80;8.40;;;;;;;;;;85438;211;3027318;-42
2023/12/03 11:23:29;;;;;;;10.70;8.20;;;;;;;;;;85334;211;3030735;-40
2023/12/03 11:26:14;;;;;;;11.70;8.40;;;;;;;;;;85423;211;3031050;-41
2023/12/03 11:29:06;;;;;;;10.80;8.40;;;;;;;;;;85329;211;3027780;-40
2023/12/03 11:31:48;;;;;;;11.10;8.40;;;;;;;;;;85429;211;3027410;-40
2023/12/03 11:34:27;;;;;;;10.80;8.30;;;;;;;;;;85431;211;3030543;-40
2023/12/03 11:37:07;;;;;;;11.10;8.50;;;;;;;;;;85403;211;3032104;-39
2023/12/03 11:39:57;;;;;;;11.10;8.60;;;;;;;;;;85407;210;3028357;-41
2023/12/03 11:42:44;;;;;;;11.60;8.50;;;;;;;;;;85416;210;3027096;-39
2023/12/03 11:45:26;;;;;;;11.60;9.10;;;;;;;;;;85448;210;3031243;-39
2023/12/03 11:48:14;;;;;;;11.60;9.00;;;;;;;;;;85458;210;3039116;-39
2023/12/03 11:51:13;;;;;;;11.80;9.10;;;;;;;;;;85482;210;3027928;-40
2023/12/03 11:54:01;;;;;;;11.20;8.90;;;;;;;;;;85412;210;3027902;-39
2023/12/03 11:56:39;;;;;;;10.80;8.30;;;;;;;;;;85456;210;3030595;-39
2023/12/03 11:59:24;;;;;;;11.30;9.00;;;;;;;;;;85442;210;3032036;-42
2023/12/03 12:02:08;;;;;;;11.60;9.10;;;;;;;;;;85436;210;3029469;-40
2023/12/03 12:04:49;;;;;;;11.10;8.70;;;;;;;;;;85434;210;3027806;-40
2023/12/03 12:07:29;;;;;;;11.10;8.70;;;;;;;;;;85331;210;3031392;-40
2023/12/03 12:10:09;;;;;;;11.70;9.00;;;;;;;;;;85466;210;3031677;-39
2023/12/03 12:12:50;;;;;;;11.50;9.20;;;;;;;;;;85486;210;3029245;-39
2023/12/03 12:15:29;;;;;;;12.00;9.00;;;;;;;;;;85482;210;3027468;-40
2023/12/03 12:18:19;;;;;;;11.80;9.10;;;;;;;;;;85433;210;3033116;-40
2023/12/03 12:21:14;;;;;;;12.70;9.30;;;;;;;;;;85389;210;3031551;-39
2023/12/03 12:23:55;;;;;;;11.70;8.80;;;;;;;;;;85544;210;3028633;-39
2023/12/03 12:26:42;;;;;;;12.00;9.20;;;;;;;;;;85452;211;3027148;-40
2023/12/03 12:29:27;;;;;;;12.80;8.80;;;;;;;;;;85449;211;3036738;-39
2023/12/03 12:32:16;;;;;;;12.10;9.10;;;;;;;;;;85349;211;3031601;-39
2023/12/03 12:35:02;;;;;;;12.10;8.70;;;;;;;;;;85436;211;3028803;-40
2023/12/03 12:37:49;;;;;;;12.20;9.20;;;;;;;;;;85392;210;3028477;-40
2023/12/03 12:40:27;;;;;;;13.00;9.90;;;;;;;;;;85453;210;3031358;-41
2023/12/03 12:43:13;;;;;;;12.00;9.30;;;;;;;;;;85481;210;3031517;-41
2023/12/03 12:45:50;;;;;;;13.70;10.10;;;;;;;;;;85433;210;3028316;-39
2023/12/03 12:48:35;;;;;;;14.10;11.50;;;;;;;;;;85382;210;3028166;-40
2023/12/03 12:51:42;;;;;;;15.80;13.10;;;;;;;;;;85462;210;3030941;-39
2023/12/03 12:54:22;;;;;;;15.80;13.70;;;;;;;;;;85323;210;3032329;-39
2023/12/03 12:57:03;;;;;;;16.20;13.20;;;;;;;;;;85456;210;3028486;-41
2023/12/03 12:59:44;;;;;;;14.90;12.50;;;;;;;;;;85426;210;3027935;-39
2023/12/03 13:02:27;;;;;;;15.10;12.80;;;;;;;;;;85391;210;3031047;-42
2023/12/03 13:05:08;;;;;;;14.30;12.30;;;;;;;;;;85451;210;3031542;-39
2023/12/03 13:07:47;;;;;;;14.90;12.90;;;;;;;;;;85413;210;3030363;-39
2023/12/03 13:10:32;;;;;;;14.10;11.80;;;;;;;;;;85425;210;3033508;-39
2023/12/03 13:13:12;;;;;;;14.70;12.10;;;;;;;;;;85469;210;3030664;-41
2023/12/03 13:15:53;;;;;;;14.60;11.80;;;;;;;;;;85498;210;3032030;-39
2023/12/03 13:18:38;;;;;;;13.40;11.50;;;;;;;;;;85433;210;3027866;-39
2023/12/03 13:21:23;;;;;;;13.20;11.30;;;;;;;;;;85468;211;3027455;-39
2023/12/03 13:24:04;;;;;;;13.50;11.60;;;;;;;;;;85454;211;3030405;-40
2023/12/03 13:27:00;;;;;;;14.00;11.10;;;;;;;;;;85474;211;3031375;-42
2023/12/03 13:29:44;;;;;;;12.80;10.60;;;;;;;;;;85452;211;3027847;-39
2023/12/03 13:32:28;;;;;;;13.60;10.70;;;;;;;;;;85422;211;3027462;-40
2023/12/03 13:35:13;;;;;;;12.60;10.70;;;;;;;;;;85408;211;3031468;-39
2023/12/03 13:37:55;;;;;;;12.90;10.90;;;;;;;;;;85446;211;3031191;-41
2023/12/03 13:40:37;;;;;;;13.30;11.30;;;;;;;;;;85428;210;3028736;-40
2023/12/03 13:43:16;;;;;;;14.00;11.40;;;;;;;;;;85441;210;3027249;-41
2023/12/03 13:45:56;;;;;;;14.10;10.20;;;;;;;;;;85414;211;3030831;-37
2023/12/03 13:48:37;;;;;;;12.80;10.80;;;;;;;;;;85461;211;3032827;-37
2023/12/03 13:51:16;;;;;;;13.00;10.90;;;;;;;;;;85466;210;3035114;-38
2023/12/03 13:53:56;;;;;;;12.40;10.60;;;;;;;;;;85488;210;3027549;-37
2023/12/03 13:56:37;;;;;;;12.40;11.00;;;;;;;;;;85405;210;3030545;-37
2023/12/03 13:59:18;;;;;;;12.90;11.00;;;;;;;;;;85461;211;3031681;-37
2023/12/03 14:01:56;;;;;;;12.50;10.80;;;;;;;;;;85464;210;3028191;-37
2023/12/03 14:04:39;;;;;;;13.50;10.90;;;;;;;;;;85474;210;3027512;-37
2023/12/03 14:07:19;;;;;;;12.10;10.60;;;;;;;;;;85497;211;3031057;-37
2023/12/03 14:09:58;;;;;;;12.40;10.10;;;;;;;;;;85404;211;3032112;-37
2023/12/03 14:12:35;;;;;;;11.10;9.90;;;;;;;;;;85479;211;3028879;-37
2023/12/03 14:15:15;;;;;;;11.70;10.10;;;;;;;;;;85432;211;3027836;-38
2023/12/03 14:17:55;;;;;;;12.20;9.80;;;;;;;;;;85509;210;3032043;-38
2023/12/03 14:20:34;;;;;;;11.00;9.50;;;;;;;;;;85467;210;3031894;-38
2023/12/03 14:23:15;;;;;;;11.00;9.60;;;;;;;;;;85463;210;3028333;-38
2023/12/03 14:25:59;;;;;;;10.90;9.20;;;;;;;;;;85494;210;3027683;-38
2023/12/03 14:28:38;;;;;;;;;;;;;;;;;;85491;211;3030237;-38
2023/12/03 14:31:23;;;;;;;10.80;9.00;;;;;;;;;;85408;210;3031991;-38
2023/12/03 14:34:09;;;;;;;10.40;8.70;;;;;;;;;;85465;210;3028234;-38
2023/12/03 14:36:47;;;;;;;;;;;;;;;;;;85434;211;3027102;-37
2023/12/03 14:39:29;;;;;;;10.60;8.60;;;;;;;;;;85398;211;3030696;-37
2023/12/03 14:42:11;;;;;;;10.00;8.20;;;;;;;;;;85390;211;3031135;-37
2023/12/03 14:44:53;;;;;;;9.90;7.90;;;;;;;;;;85482;211;3028810;-37
2023/12/03 14:47:36;;;;;;;9.40;7.90;;;;;;;;;;85488;211;3027640;-37
2023/12/03 14:50:17;;;;;;;9.40;7.80;;;;;;;;;;85336;211;3031121;-37
2023/12/03 14:53:01;;;;;;;10.20;7.80;;;;;;;;;;85456;211;3037988;-37
2023/12/03 14:55:43;;;;;;;9.00;7.40;;;;;;;;;;85438;211;3028215;-37
2023/12/03 14:58:21;;;;;;;9.50;7.40;;;;;;;;;;85487;211;3027671;-38
2023/12/03 15:01:03;;;;;;;9.30;7.60;;;;;;;;;;85504;210;3031310;-37
2023/12/03 15:03:43;;;;;;;8.60;7.00;;;;;;;;;;85485;210;3031150;-37
2023/12/03 15:06:23;;;;;;;8.20;6.70;;;;;;;;;;85449;210;3028424;-36
2023/12/03 15:09:10;;;;;;;9.30;7.20;;;;;;;;;;85482;210;3027307;-36
2023/12/03 15:11:51;;;;;;;9.30;7.30;;;;;;;;;;85459;210;3030828;-37
2023/12/03 15:14:35;;;;;;;8.30;6.60;;;;;;;;;;85425;211;3031964;-37
2023/12/03 15:17:15;;;;;;;8.40;6.70;;;;;;;;;;85344;211;3028775;-38
2023/12/03 15:19:55;;;;;;;8.10;6.30;;;;;;;;;;85456;211;3027433;-39
2023/12/03 15:22:36;;;;;;;7.90;6.60;;;;;;;;;;85416;211;3031192;-40
2023/12/03 15:25:19;;;;;;;7.80;6.30;;;;;;;;;;85462;211;3031689;-40
2023/12/03 15:28:05;;;;;;;7.90;6.40;;;;;;;;;;85462;211;3028539;-40
2023/12/03 15:30:45;;;;;;;7.90;6.50;;;;;;;;;;85440;211;3027724;-40
2023/12/03 15:33:23;;;;;;;8.10;6.60;;;;;;;;;;85427;211;3031121;-39
2023/12/03 15:36:02;;;;;;;8.40;6.40;;;;;;;;;;85438;211;3031254;-39
2023/12/03 15:38:45;;;;;;;8.10;6.40;;;;;;;;;;85451;210;3028395;-39
2023/12/03 15:41:27;;;;;;;7.80;6.20;;;;;;;;;;85428;210;3027023;-40
2023/12/03 15:44:08;;;;;;;8.40;6.20;;;;;;;;;;85455;210;3036564;-38